Hlavní strana
METAR-TAF:

METAR-TAF

Letiště :

Aiken, Jižní Karolína, Spojené státy americké

zeměpisná šířka: 33-38-58N, zeměpisná délka: 081-41-06W, výška: 161 m

Aktuální stav počasí

Zpráva byla vytvořena před 16 minutami, v 07:35 UTC
Východoseverovýchodní vítr 9 kt s nárazy do 14 kt
Teplota 6°C
Vlhkost vzduchu 75%
Tlak 1028 hPa
Viditelnost: 16.1 km
Oblačno až skoro zataženo ve výšce 7000 ft

METAR: KAIK 080735Z AUTO 06009G14KT 10SM BKN070 06/02 A3037 RMK AO2

Čas: 02:51 (07:51 UTC)


TAF: chybějící

Stav a předpovědi počasí z více než 4 000 letišť (zprávy METAR a TAF).

Červené a žluté tečky na mapě představují dostupné meteorologické stanice.

Když kurzor umístíte na tečku, zobrazí se název stanice.

Pak kliknutím zobrazíte stav a předpověď počasí.

Chcete-li změnit mapu, kliknutím na zelené tlačítko se znaménkem +mapu přiblížíte, kliknutím na zelené tlačítko se znaménkem – mapu oddálíte a kliknutím na zelené šipky přejdete na sousední mapy.


METAR-TAF: